Time;durP1;ratioP1;P1;durP2;ratioP2;P2;SDS_P1;SDS_P2;PMS_P1;PMS_P2;Temp;Humidity;BMP_temperature;BMP_pressure;BME280_temperature;BME280_humidity;BME280_pressure;Samples;Min_cycle;Max_cycle;Signal;HPM_P1;HPM_P2
2021/12/08 00:00:18;;;;;;;16.75;3.70;;;3.40;99.90;;;;;;5073286;28;20048;-38
2021/12/08 00:02:45;;;;;;;11.85;3.75;;;3.40;99.90;;;;;;5075034;28;20051;-40
2021/12/08 00:05:13;;;;;;;12.82;4.40;;;3.40;99.90;;;;;;5074042;28;20475;-38
2021/12/08 00:07:40;;;;;;;12.93;3.80;;;3.40;99.90;;;;;;5074363;28;20049;-41
2021/12/08 00:10:16;;;;;;;9.43;4.03;;;3.40;99.90;;;;;;5073721;28;20040;-38
2021/12/08 00:15:29;;;;;;;13.88;4.50;;;3.40;99.90;;;;;;5057389;28;20140;-38
2021/12/08 00:17:56;;;;;;;16.60;4.88;;;3.40;99.90;;;;;;5090221;28;20052;-38
2021/12/08 00:20:23;;;;;;;10.60;4.65;;;3.40;99.90;;;;;;5056292;28;20569;-40
2021/12/08 00:22:50;;;;;;;13.50;5.75;;;3.40;99.90;;;;;;5073380;28;20098;-39
2021/12/08 00:25:17;;;;;;;10.80;3.92;;;3.40;99.90;;;;;;5074959;28;20049;-39
2021/12/08 00:27:44;;;;;;;14.65;5.05;;;3.40;99.90;;;;;;5075225;28;20048;-38
2021/12/08 00:30:11;;;;;;;13.45;4.68;;;3.40;99.90;;;;;;5074385;28;20106;-38
2021/12/08 00:32:39;;;;;;;11.23;4.13;;;3.40;99.90;;;;;;5073978;28;20048;-39
2021/12/08 00:35:07;;;;;;;14.55;3.97;;;3.40;99.90;;;;;;5073842;28;20386;-39
2021/12/08 00:37:34;;;;;;;15.07;4.40;;;3.30;99.90;;;;;;5055024;28;20060;-38
2021/12/08 00:40:01;;;;;;;10.52;4.20;;;3.30;99.90;;;;;;5056639;28;20054;-38
2021/12/08 00:42:28;;;;;;;15.57;4.72;;;3.30;99.90;;;;;;5057398;28;20095;-38
2021/12/08 00:44:55;;;;;;;11.45;3.88;;;3.30;99.90;;;;;;5072399;28;20131;-38
2021/12/08 00:47:22;;;;;;;12.20;4.47;;;3.40;99.90;;;;;;5056812;28;20095;-39
2021/12/08 00:49:50;;;;;;;12.32;4.47;;;3.40;99.90;;;;;;5056704;28;20524;-38
2021/12/08 00:52:17;;;;;;;10.43;3.60;;;3.30;99.90;;;;;;5073549;28;20049;-38
2021/12/08 00:54:44;;;;;;;7.60;3.75;;;3.40;99.90;;;;;;5057042;28;20060;-38
2021/12/08 00:57:11;;;;;;;17.17;5.28;;;3.40;99.90;;;;;;5056967;28;20058;-38
2021/12/08 00:59:38;;;;;;;15.43;4.28;;;3.40;99.90;;;;;;5055632;28;20434;-39
2021/12/08 01:02:06;;;;;;;13.07;3.88;;;3.40;99.90;;;;;;5050603;28;20049;-37
2021/12/08 01:04:33;;;;;;;10.30;4.35;;;3.40;99.90;;;;;;5054507;28;20217;-38
2021/12/08 01:07:02;;;;;;;10.98;4.47;;;3.50;99.90;;;;;;5054651;28;20048;-38
2021/12/08 01:09:29;;;;;;;13.32;4.32;;;3.50;99.90;;;;;;5073158;28;20058;-38
2021/12/08 01:11:57;;;;;;;11.10;5.07;;;3.50;99.90;;;;;;5054581;28;20131;-38
2021/12/08 01:14:25;;;;;;;13.75;4.38;;;3.50;99.90;;;;;;5041663;28;20053;-38
2021/12/08 01:16:52;;;;;;;14.07;5.15;;;3.50;99.90;;;;;;5076681;28;20135;-38
2021/12/08 01:19:19;;;;;;;12.10;4.45;;;3.50;99.90;;;;;;5064363;28;20159;-37
2021/12/08 01:21:46;;;;;;;10.02;4.38;;;3.50;99.90;;;;;;5062839;28;20041;-38
2021/12/08 01:24:14;;;;;;;11.57;4.15;;;3.60;99.90;;;;;;5068524;28;20063;-37
2021/12/08 01:26:41;;;;;;;12.93;4.85;;;3.60;99.90;;;;;;5064003;28;20515;-38
2021/12/08 01:29:08;;;;;;;9.40;4.22;;;3.60;99.90;;;;;;5055754;28;20084;-38
2021/12/08 01:31:39;;;;;;;14.85;4.63;;;3.60;99.90;;;;;;5073851;28;20052;-38
2021/12/08 01:34:06;;;;;;;13.90;4.78;;;3.70;99.90;;;;;;5068104;28;20060;-37
2021/12/08 01:36:33;;;;;;;7.68;3.25;;;3.70;99.90;;;;;;5054964;28;20078;-40
2021/12/08 01:39:00;;;;;;;9.02;4.07;;;3.70;99.90;;;;;;5056241;28;20135;-37
2021/12/08 01:41:28;;;;;;;11.65;3.50;;;3.70;99.90;;;;;;5073769;28;20132;-40
2021/12/08 01:46:39;;;;;;;10.77;3.60;;;3.80;99.90;;;;;;5056591;28;20055;-38
2021/12/08 01:49:06;;;;;;;7.78;3.40;;;3.90;99.90;;;;;;5075746;28;20058;-38
2021/12/08 01:51:33;;;;;;;10.60;3.70;;;3.90;99.90;;;;;;5074533;28;20117;-38
2021/12/08 01:54:02;;;;;;;9.15;4.40;;;3.90;99.90;;;;;;5075743;28;20131;-38
2021/12/08 01:56:30;;;;;;;10.68;4.05;;;3.90;99.90;;;;;;5093502;28;20052;-38
2021/12/08 01:58:57;;;;;;;7.85;4.05;;;3.90;99.90;;;;;;5093355;28;20423;-38
2021/12/08 02:01:27;;;;;;;10.98;4.15;;;3.90;99.90;;;;;;5067140;28;20128;-37
2021/12/08 02:03:54;;;;;;;13.57;4.35;;;3.90;99.90;;;;;;5053836;28;20045;-40
2021/12/08 02:06:22;;;;;;;9.65;4.00;;;3.90;99.90;;;;;;5055258;28;20135;-38
2021/12/08 02:08:50;;;;;;;9.95;3.88;;;3.90;99.90;;;;;;5056133;28;20472;-38
2021/12/08 02:11:18;;;;;;;10.95;4.85;;;3.90;99.90;;;;;;5071021;28;20129;-38
2021/12/08 02:13:46;;;;;;;12.25;4.97;;;3.90;99.90;;;;;;5072259;28;20451;-38
2021/12/08 02:16:14;;;;;;;10.98;4.80;;;3.90;99.90;;;;;;5053931;28;20106;-39
2021/12/08 02:18:42;;;;;;;8.05;3.72;;;3.90;99.90;;;;;;5055216;28;20040;-38
2021/12/08 02:21:24;;;;;;;11.27;4.30;;;3.90;99.90;;;;;;5073200;28;20061;-39
2021/12/08 02:23:51;;;;;;;14.57;4.38;;;3.90;99.90;;;;;;5069965;28;20127;-38
2021/12/08 02:26:18;;;;;;;15.52;5.20;;;3.90;99.90;;;;;;5073477;28;20468;-37
2021/12/08 02:28:45;;;;;;;8.80;4.43;;;3.90;99.90;;;;;;5073015;28;20051;-38
2021/12/08 02:31:15;;;;;;;9.00;4.50;;;3.90;99.90;;;;;;5051039;28;20132;-38
2021/12/08 02:47:32;;;;;;;7.03;4.15;;;3.90;99.90;;;;;;5071876;28;20483;-38
2021/12/08 02:49:59;;;;;;;9.25;4.57;;;4.00;99.90;;;;;;5059545;28;20455;-38
2021/12/08 02:52:28;;;;;;;10.68;4.07;;;3.90;99.90;;;;;;5043494;28;20071;-38
2021/12/08 02:54:55;;;;;;;11.68;4.97;;;3.90;99.90;;;;;;5075018;28;20087;-39
2021/12/08 02:57:26;;;;;;;10.43;5.05;;;4.00;99.90;;;;;;5074819;28;20098;-38
2021/12/08 02:59:53;;;;;;;;;;;4.00;99.90;;;;;;5080593;28;20476;-38
2021/12/08 03:02:20;;;;;;;11.70;5.32;;;3.90;99.90;;;;;;5068719;28;20300;-39
2021/12/08 03:04:47;;;;;;;9.00;4.53;;;4.00;99.90;;;;;;5052187;28;20055;-40
2021/12/08 03:07:14;;;;;;;12.43;5.80;;;3.90;99.90;;;;;;5052489;28;20049;-38
2021/12/08 03:09:42;;;;;;;11.57;6.20;;;4.00;99.90;;;;;;5052319;28;20055;-38
2021/12/08 03:12:10;;;;;;;11.68;5.75;;;4.00;99.90;;;;;;5052282;28;20075;-37
2021/12/08 03:14:37;;;;;;;10.52;5.70;;;4.00;99.90;;;;;;5052263;28;20071;-38
2021/12/08 03:17:06;;;;;;;12.02;6.05;;;4.00;99.90;;;;;;5088456;28;20127;-38
2021/12/08 03:19:33;;;;;;;16.50;7.28;;;4.10;99.90;;;;;;5092201;28;20087;-38
2021/12/08 03:22:02;;;;;;;10.77;6.88;;;4.10;99.90;;;;;;5074713;28;20047;-38
2021/12/08 03:24:32;;;;;;;12.43;5.72;;;4.10;99.90;;;;;;5065970;28;20059;-39
2021/12/08 03:27:08;;;;;;;11.93;5.85;;;4.20;99.90;;;;;;5076450;28;20055;-38
2021/12/08 03:29:44;;;;;;;12.90;6.60;;;4.10;99.90;;;;;;5075553;28;20040;-37
2021/12/08 03:32:14;;;;;;;15.25;6.32;;;4.20;99.90;;;;;;5058909;28;20049;-39
2021/12/08 03:34:49;;;;;;;14.07;6.97;;;4.20;99.90;;;;;;5076504;28;20564;-39
2021/12/08 03:37:17;;;;;;;11.40;6.57;;;4.20;99.90;;;;;;5076282;28;20454;-38
2021/12/08 03:39:44;;;;;;;15.05;6.90;;;4.20;99.90;;;;;;5065113;28;20077;-38
2021/12/08 03:42:12;;;;;;;14.10;7.55;;;4.30;99.90;;;;;;5074926;28;20155;-38
2021/12/08 03:44:39;;;;;;;11.55;6.40;;;4.30;99.90;;;;;;5075281;28;20131;-38
2021/12/08 03:47:14;;;;;;;19.50;7.93;;;4.30;99.90;;;;;;5058822;28;20084;-42
2021/12/08 03:49:41;;;;;;;14.15;8.50;;;4.40;99.90;;;;;;5074739;28;20052;-43
2021/12/08 03:52:08;;;;;;;16.23;8.75;;;4.40;99.90;;;;;;5038139;28;20167;-38
2021/12/08 03:54:35;;;;;;;15.88;9.05;;;4.40;99.90;;;;;;5075007;28;20083;-41
2021/12/08 03:57:02;;;;;;;13.98;9.60;;;4.40;99.90;;;;;;5074842;28;20051;-38
2021/12/08 03:59:30;;;;;;;13.75;8.77;;;4.40;99.90;;;;;;5075410;28;20049;-37
2021/12/08 04:01:57;;;;;;;15.15;9.52;;;4.50;99.90;;;;;;5072255;28;20049;-38
2021/12/08 04:04:27;;;;;;;18.50;10.15;;;4.50;99.90;;;;;;5038215;28;20075;-38
2021/12/08 04:06:56;;;;;;;20.63;10.65;;;4.50;99.90;;;;;;5042300;28;20457;-37
2021/12/08 04:09:29;;;;;;;15.65;10.60;;;4.60;99.90;;;;;;5057956;28;20053;-38
2021/12/08 04:11:57;;;;;;;16.60;10.00;;;4.60;99.90;;;;;;5057586;28;20050;-38
2021/12/08 04:14:26;;;;;;;15.35;10.23;;;4.60;99.90;;;;;;5058112;28;20095;-38
2021/12/08 04:17:00;;;;;;;17.77;10.07;;;4.70;99.90;;;;;;5058041;28;20044;-39
2021/12/08 04:19:27;;;;;;;15.77;9.88;;;4.70;99.90;;;;;;5075221;28;20074;-40
2021/12/08 04:21:59;;;;;;;15.18;9.35;;;4.70;99.90;;;;;;5070409;28;20095;-38
2021/12/08 04:24:26;;;;;;;17.27;8.95;;;4.70;99.90;;;;;;5045709;28;20257;-38
2021/12/08 04:26:55;;;;;;;16.48;9.85;;;4.70;99.90;;;;;;5037529;28;20076;-40
2021/12/08 04:29:23;;;;;;;18.05;9.48;;;4.80;99.90;;;;;;5055189;28;20048;-38
2021/12/08 04:31:51;;;;;;;17.63;9.52;;;4.80;99.90;;;;;;5055171;28;20053;-38
2021/12/08 04:34:24;;;;;;;13.90;9.00;;;4.80;99.90;;;;;;5037278;28;20476;-38
2021/12/08 04:36:51;;;;;;;16.67;9.88;;;4.80;99.90;;;;;;5036092;28;20052;-38
2021/12/08 04:39:23;;;;;;;18.95;10.20;;;4.90;99.90;;;;;;5054598;28;20118;-38
2021/12/08 04:41:56;;;;;;;14.13;9.55;;;4.80;99.90;;;;;;5049217;28;20508;-38
2021/12/08 04:44:30;;;;;;;11.95;8.15;;;4.90;99.90;;;;;;5074828;28;20048;-38
2021/12/08 04:47:18;;;;;;;18.08;9.88;;;4.90;99.90;;;;;;5061808;28;20056;-39
2021/12/08 04:50:21;;;;;;;16.67;9.98;;;4.90;99.90;;;;;;5074724;28;20542;-38
2021/12/08 04:52:59;;;;;;;12.40;9.10;;;4.90;99.90;;;;;;5074650;28;20044;-38
2021/12/08 05:04:13;;;;;;;13.05;9.07;;;5.00;99.90;;;;;;5064456;28;20060;-38
2021/12/08 05:06:48;;;;;;;13.65;7.65;;;5.00;99.90;;;;;;5068500;28;20049;-38
2021/12/08 05:09:17;;;;;;;19.52;9.13;;;5.00;99.90;;;;;;5055355;28;20044;-39
2021/12/08 05:11:47;;;;;;;16.58;8.32;;;5.00;99.90;;;;;;5073227;28;20488;-38
2021/12/08 05:14:16;;;;;;;12.27;7.50;;;5.00;99.90;;;;;;5073113;28;20125;-42
2021/12/08 05:16:44;;;;;;;14.77;8.45;;;5.00;99.90;;;;;;5069204;28;20080;-38
2021/12/08 05:19:12;;;;;;;11.50;7.90;;;5.10;99.90;;;;;;5073977;28;20514;-38
2021/12/08 05:21:43;;;;;;;16.15;8.13;;;5.10;99.90;;;;;;5071952;28;20063;-38
2021/12/08 05:24:12;;;;;;;14.00;8.43;;;5.10;99.90;;;;;;5060958;28;20047;-38
2021/12/08 05:26:40;;;;;;;13.00;8.60;;;5.10;99.90;;;;;;5062119;28;20083;-38
2021/12/08 05:29:09;;;;;;;15.43;8.65;;;5.10;99.90;;;;;;5072579;28;20097;-38
2021/12/08 05:31:36;;;;;;;12.63;7.90;;;5.10;99.90;;;;;;5070018;28;20080;-38
2021/12/08 05:34:03;;;;;;;16.13;8.23;;;5.10;99.90;;;;;;5054988;28;20127;-38
2021/12/08 05:36:30;;;;;;;14.30;8.43;;;5.20;99.90;;;;;;5073158;28;20492;-39
2021/12/08 05:38:59;;;;;;;15.15;8.13;;;5.20;99.90;;;;;;5073384;28;20131;-38
2021/12/08 05:41:27;;;;;;;15.10;8.30;;;5.20;99.90;;;;;;5069258;28;20055;-38
2021/12/08 05:43:54;;;;;;;15.63;7.70;;;5.20;99.90;;;;;;5054396;28;20127;-40
2021/12/08 05:46:22;;;;;;;15.40;7.80;;;5.20;99.90;;;;;;5063355;28;20052;-39
2021/12/08 05:48:50;;;;;;;13.77;8.00;;;5.30;99.90;;;;;;5051246;28;20052;-38
2021/12/08 05:51:18;;;;;;;17.38;7.95;;;5.20;99.90;;;;;;5036730;28;20052;-38
2021/12/08 05:53:47;;;;;;;16.17;7.80;;;5.20;99.90;;;;;;5067815;28;20045;-38
2021/12/08 05:56:15;;;;;;;15.73;8.25;;;5.20;99.90;;;;;;5055862;28;20052;-38
2021/12/08 05:58:42;;;;;;;12.88;7.20;;;5.20;99.90;;;;;;5064916;28;20053;-39
2021/12/08 06:01:12;;;;;;;15.13;8.20;;;5.10;99.90;;;;;;5061869;28;20097;-38
2021/12/08 06:03:39;;;;;;;16.63;7.53;;;5.10;99.90;;;;;;5038041;28;20083;-38
2021/12/08 06:06:06;;;;;;;14.90;7.63;;;5.10;99.90;;;;;;5054636;28;20097;-41
2021/12/08 06:08:33;;;;;;;15.80;7.57;;;5.10;99.90;;;;;;5055715;28;20403;-38
2021/12/08 06:11:06;;;;;;;15.77;7.50;;;5.00;99.90;;;;;;5065451;28;20141;-39
2021/12/08 06:13:34;;;;;;;10.23;7.43;;;5.10;99.90;;;;;;5055095;28;20078;-40
2021/12/08 06:16:03;;;;;;;12.55;6.90;;;5.00;99.90;;;;;;5053051;28;20071;-39
2021/12/08 06:18:36;;;;;;;15.13;7.30;;;5.00;99.90;;;;;;5068827;28;20052;-40
2021/12/08 06:21:04;;;;;;;13.32;7.03;;;4.90;99.90;;;;;;5054246;28;20048;-38
2021/12/08 06:23:32;;;;;;;11.60;6.63;;;4.90;99.90;;;;;;5072304;28;20056;-40
2021/12/08 06:25:59;;;;;;;15.43;6.57;;;4.90;99.90;;;;;;5050375;28;20135;-38
2021/12/08 06:28:26;;;;;;;14.82;6.57;;;4.90;99.90;;;;;;5060816;28;20054;-38
2021/12/08 06:30:54;;;;;;;13.45;6.57;;;4.90;99.90;;;;;;5054032;28;20472;-38
2021/12/08 06:33:21;;;;;;;10.82;6.18;;;4.90;99.90;;;;;;5053073;28;20124;-39
2021/12/08 06:35:50;;;;;;;14.85;6.60;;;4.90;99.90;;;;;;5070189;28;20058;-41
2021/12/08 06:38:18;;;;;;;17.75;5.68;;;4.80;99.90;;;;;;5071464;28;20087;-40
2021/12/08 06:40:46;;;;;;;9.65;5.72;;;4.80;99.90;;;;;;5048172;28;20147;-38
2021/12/08 06:43:14;;;;;;;13.80;6.20;;;4.80;99.90;;;;;;5070487;28;20053;-38
2021/12/08 06:45:44;;;;;;;11.95;6.15;;;4.80;99.90;;;;;;5052289;28;20045;-38
2021/12/08 06:48:14;;;;;;;11.60;5.88;;;4.80;99.90;;;;;;5074084;28;20044;-40
2021/12/08 06:50:43;;;;;;;11.63;5.70;;;4.80;99.90;;;;;;5053945;28;20122;-39
2021/12/08 06:53:10;;;;;;;12.05;6.00;;;4.80;99.90;;;;;;5044243;28;20052;-42
2021/12/08 06:55:39;;;;;;;17.00;5.88;;;4.80;99.90;;;;;;5068224;28;20123;-40
2021/12/08 06:58:08;;;;;;;17.10;5.20;;;4.80;99.90;;;;;;5058664;28;20058;-39
2021/12/08 07:00:48;;;;;;;12.93;5.15;;;4.80;99.90;;;;;;5064022;28;20059;-40
2021/12/08 07:03:32;;;;;;;6.35;4.30;;;4.90;99.90;;;;;;5066633;28;20044;-42
2021/12/08 07:06:10;;;;;;;10.25;4.63;;;4.90;99.90;;;;;;5044165;28;20490;-39
2021/12/08 07:08:44;;;;;;;12.45;3.85;;;4.90;99.90;;;;;;5061093;28;20373;-38
2021/12/08 07:11:11;;;;;;;12.70;4.45;;;4.90;99.90;;;;;;5076443;28;20094;-39
2021/12/08 07:13:38;;;;;;;9.45;4.82;;;4.90;99.90;;;;;;5050340;28;20056;-40
2021/12/08 07:16:07;;;;;;;14.40;4.72;;;4.90;99.90;;;;;;5052841;28;20056;-40
2021/12/08 07:18:49;;;;;;;13.65;4.53;;;4.90;99.90;;;;;;5056330;28;20098;-38
2021/12/08 07:21:16;;;;;;;;;;;5.00;99.90;;;;;;5051989;28;20114;-37
2021/12/08 07:23:45;;;;;;;9.73;4.30;;;4.90;99.90;;;;;;5052397;28;19956;-38
2021/12/08 07:26:14;;;;;;;11.82;4.15;;;4.90;99.90;;;;;;5070245;28;20119;-40
2021/12/08 07:28:41;;;;;;;11.10;3.78;;;4.90;99.90;;;;;;5070145;28;20523;-38
2021/12/08 07:31:10;;;;;;;12.75;3.83;;;4.90;99.90;;;;;;5063489;28;20500;-38
2021/12/08 07:33:39;;;;;;;9.88;4.20;;;4.90;99.90;;;;;;5070878;28;20147;-40
2021/12/08 07:36:07;;;;;;;12.55;4.10;;;4.90;99.90;;;;;;5069540;28;20080;-38
2021/12/08 07:38:34;;;;;;;8.52;4.53;;;4.90;99.90;;;;;;5064977;28;20450;-37
2021/12/08 07:41:06;;;;;;;8.10;4.18;;;4.90;99.90;;;;;;5052119;28;20063;-38
2021/12/08 07:43:34;;;;;;;9.60;4.40;;;4.90;99.90;;;;;;5052041;28;20385;-38
2021/12/08 07:46:06;;;;;;;11.43;3.90;;;4.90;99.90;;;;;;5070482;28;20091;-38
2021/12/08 07:48:35;;;;;;;10.73;4.03;;;4.90;99.90;;;;;;5064864;28;20443;-39
2021/12/08 07:51:06;;;;;;;12.15;3.58;;;5.00;99.90;;;;;;5060334;28;20052;-38
2021/12/08 07:53:33;;;;;;;13.05;3.67;;;5.00;99.90;;;;;;5069984;28;20067;-38
2021/12/08 07:56:03;;;;;;;12.23;3.40;;;5.00;99.90;;;;;;5053060;28;20099;-37
2021/12/08 07:58:33;;;;;;;8.65;3.20;;;5.00;99.90;;;;;;5063014;28;20059;-37
2021/12/08 08:01:01;;;;;;;10.75;3.15;;;5.00;99.90;;;;;;5069275;28;20141;-38
2021/12/08 08:03:30;;;;;;;9.30;3.17;;;5.00;99.90;;;;;;5052927;28;20056;-41
2021/12/08 08:05:57;;;;;;;10.63;3.28;;;5.00;99.90;;;;;;5052409;28;20139;-38
2021/12/08 08:08:30;;;;;;;8.73;2.95;;;5.00;99.90;;;;;;5050093;28;20409;-39
2021/12/08 08:10:58;;;;;;;11.38;3.40;;;4.90;99.90;;;;;;5078426;28;20058;-39
2021/12/08 08:13:25;;;;;;;10.75;3.30;;;4.90;99.90;;;;;;5079777;28;20056;-39
2021/12/08 08:15:56;;;;;;;9.05;3.40;;;4.90;99.90;;;;;;5056074;28;20425;-39
2021/12/08 08:18:26;;;;;;;9.77;3.63;;;4.90;99.90;;;;;;5073260;28;20070;-42
2021/12/08 08:20:57;;;;;;;12.85;3.13;;;4.90;99.90;;;;;;5055146;28;20134;-42
2021/12/08 08:23:27;;;;;;;14.20;4.53;;;4.90;99.90;;;;;;5073743;28;20045;-40
2021/12/08 08:25:55;;;;;;;12.95;3.28;;;4.90;99.90;;;;;;5072958;28;20552;-39
2021/12/08 08:28:22;;;;;;;14.95;3.28;;;4.90;99.90;;;;;;5063782;28;20400;-38
2021/12/08 08:30:53;;;;;;;15.02;2.67;;;5.00;99.90;;;;;;5055578;28;20525;-38
2021/12/08 08:33:20;;;;;;;11.40;2.97;;;5.00;99.90;;;;;;5073077;28;20056;-38
2021/12/08 08:35:49;;;;;;;13.85;2.95;;;5.00;99.90;;;;;;5077995;28;20071;-38
2021/12/08 08:38:24;;;;;;;59.38;25.10;;;5.00;99.90;;;;;;5072650;28;20052;-39
2021/12/08 08:40:54;;;;;;;10.43;3.13;;;5.00;99.90;;;;;;5059570;28;20050;-38
2021/12/08 08:43:21;;;;;;;14.40;3.15;;;5.00;99.90;;;;;;5070117;28;20059;-38
2021/12/08 08:45:51;;;;;;;16.65;3.40;;;5.00;99.90;;;;;;5055474;28;20605;-39
2021/12/08 08:48:20;;;;;;;13.23;3.20;;;5.00;99.90;;;;;;5053069;28;20066;-38
2021/12/08 08:50:50;;;;;;;19.55;3.38;;;5.10;99.90;;;;;;5055787;28;20383;-38
2021/12/08 08:53:17;;;;;;;14.43;3.20;;;5.10;99.90;;;;;;5062825;28;20430;-39
2021/12/08 08:55:48;;;;;;;8.98;2.33;;;5.20;99.90;;;;;;5055439;28;20118;-41
2021/12/08 08:58:17;;;;;;;13.43;1.95;;;5.20;99.90;;;;;;5038665;28;20057;-38
2021/12/08 09:00:45;;;;;;;12.52;2.47;;;5.30;99.90;;;;;;5064114;28;20493;-38
2021/12/08 09:03:16;;;;;;;10.13;2.55;;;5.30;99.90;;;;;;5048866;28;20822;-39
2021/12/08 09:05:44;;;;;;;13.55;2.45;;;5.30;99.90;;;;;;5070667;28;20095;-41
2021/12/08 09:08:12;;;;;;;14.00;2.63;;;5.30;99.90;;;;;;5053559;28;20499;-38
2021/12/08 09:10:42;;;;;;;12.43;2.63;;;5.30;99.90;;;;;;5072667;28;20060;-40
2021/12/08 09:13:11;;;;;;;11.82;3.10;;;5.40;99.90;;;;;;5054126;28;20106;-39
2021/12/08 09:15:41;;;;;;;19.58;3.45;;;5.30;99.90;;;;;;5051178;28;20481;-39
2021/12/08 09:18:11;;;;;;;11.68;2.65;;;5.30;99.90;;;;;;5073242;28;20507;-38
2021/12/08 09:20:42;;;;;;;16.45;3.17;;;5.40;99.90;;;;;;5076390;28;20041;-38
2021/12/08 09:23:15;;;;;;;14.45;3.08;;;5.40;99.90;;;;;;5052725;28;20048;-38
2021/12/08 09:25:46;;;;;;;9.98;2.88;;;5.40;99.90;;;;;;5071729;28;20076;-39
2021/12/08 09:28:14;;;;;;;17.00;3.80;;;5.30;99.90;;;;;;5055208;28;20084;-39
2021/12/08 09:30:44;;;;;;;15.80;3.22;;;5.40;99.90;;;;;;5053823;28;20053;-38
2021/12/08 09:33:13;;;;;;;12.10;3.25;;;5.40;99.90;;;;;;5071124;28;20067;-38
2021/12/08 09:35:42;;;;;;;18.15;2.90;;;5.40;99.90;;;;;;5071334;28;20060;-40
2021/12/08 09:38:12;;;;;;;15.02;2.95;;;5.40;99.90;;;;;;5071035;28;20053;-39
2021/12/08 09:40:41;;;;;;;12.63;2.88;;;5.40;99.90;;;;;;5071562;28;20125;-42
2021/12/08 09:43:10;;;;;;;9.90;2.90;;;5.40;99.90;;;;;;5074680;28;20055;-40
2021/12/08 09:45:40;;;;;;;12.32;2.50;;;5.40;99.90;;;;;;5067170;28;20686;-40
2021/12/08 09:48:10;;;;;;;12.15;2.53;;;5.50;99.90;;;;;;5073970;28;20519;-39
2021/12/08 09:50:37;;;;;;;12.77;3.53;;;5.50;99.90;;;;;;5070846;28;20060;-38
2021/12/08 09:53:04;;;;;;;11.52;2.65;;;5.70;99.90;;;;;;5054011;28;20040;-38
2021/12/08 09:55:31;;;;;;;13.55;2.95;;;5.60;99.90;;;;;;5036957;28;20048;-39
2021/12/08 09:57:58;;;;;;;20.38;3.88;;;5.60;99.90;;;;;;5065851;28;20064;-38
2021/12/08 10:00:27;;;;;;;17.15;3.60;;;5.60;99.90;;;;;;5053310;28;20057;-38
2021/12/08 10:02:58;;;;;;;16.92;5.05;;;5.70;99.90;;;;;;5071916;28;20135;-38
2021/12/08 10:05:26;;;;;;;25.63;11.52;;;5.70;99.90;;;;;;5053376;28;20133;-38
2021/12/08 10:07:53;;;;;;;56.33;29.33;;;5.80;99.90;;;;;;5071319;28;20594;-39
2021/12/08 10:10:20;;;;;;;58.22;29.52;;;5.80;99.90;;;;;;5072425;28;20048;-38
2021/12/08 10:12:47;;;;;;;27.63;9.73;;;5.80;99.90;;;;;;5071657;28;20574;-39
2021/12/08 10:15:17;;;;;;;18.42;6.75;;;5.80;99.90;;;;;;5053570;28;20509;-40
2021/12/08 10:17:44;;;;;;;29.15;16.65;;;5.90;99.90;;;;;;5052854;28;20114;-38
2021/12/08 10:20:14;;;;;;;37.38;22.65;;;5.90;99.90;;;;;;5070752;28;20102;-39
2021/12/08 10:22:43;;;;;;;18.67;6.90;;;6.00;99.90;;;;;;5051711;28;20438;-38
2021/12/08 10:25:12;;;;;;;17.27;5.85;;;6.00;99.90;;;;;;5052946;28;20048;-37
2021/12/08 10:28:04;;;;;;;17.77;4.78;;;6.00;99.90;;;;;;5053361;28;20504;-38
2021/12/08 10:30:31;;;;;;;15.70;3.60;;;6.00;99.90;;;;;;5040393;28;20501;-40
2021/12/08 10:33:00;;;;;;;17.65;3.42;;;6.00;99.90;;;;;;5053214;28;20082;-38
2021/12/08 10:35:46;;;;;;;12.95;3.17;;;6.10;99.90;;;;;;5070229;28;20110;-42
2021/12/08 10:38:16;;;;;;;13.30;2.83;;;6.10;99.90;;;;;;5053616;28;20072;-38
2021/12/08 10:41:04;;;;;;;11.40;2.95;;;6.20;99.90;;;;;;5071421;28;20044;-42
2021/12/08 10:43:31;;;;;;;14.25;2.60;;;6.20;99.90;;;;;;5057091;28;20066;-39
2021/12/08 10:46:03;;;;;;;14.57;2.47;;;6.20;99.90;;;;;;5053452;28;20084;-38
2021/12/08 10:48:35;;;;;;;;;;;6.30;99.90;;;;;;5072054;28;20048;-37
2021/12/08 10:56:37;;;;;;;13.07;4.13;;;6.40;99.90;;;;;;5071234;28;20052;-37
2021/12/08 10:59:04;;;;;;;10.88;3.00;;;6.40;99.90;;;;;;5053649;28;20127;-40
2021/12/08 11:01:31;;;;;;;14.25;3.03;;;6.40;99.90;;;;;;5091343;28;20047;-38
2021/12/08 11:04:00;;;;;;;11.48;2.70;;;6.40;99.90;;;;;;5058331;28;20374;-37
2021/12/08 11:06:30;;;;;;;11.77;3.17;;;6.40;99.90;;;;;;5069659;28;20531;-40
2021/12/08 11:08:58;;;;;;;12.30;3.25;;;6.50;99.90;;;;;;5053030;28;20049;-38
2021/12/08 11:11:28;;;;;;;19.20;2.95;;;6.50;99.90;;;;;;5052370;28;20062;-38
2021/12/08 11:13:56;;;;;;;14.93;3.05;;;6.50;99.90;;;;;;5069641;28;20044;-39
2021/12/08 11:16:27;;;;;;;12.23;2.97;;;6.50;99.90;;;;;;5069881;28;20087;-39
2021/12/08 11:18:59;;;;;;;13.05;2.75;;;6.40;99.90;;;;;;5070129;28;20044;-38
2021/12/08 11:21:32;;;;;;;16.75;3.20;;;6.40;99.90;;;;;;5070718;28;20053;-39
2021/12/08 11:24:02;;;;;;;14.25;3.40;;;6.40;99.90;;;;;;5052967;28;20055;-38
2021/12/08 11:26:30;;;;;;;8.30;3.13;;;6.40;99.90;;;;;;5071216;28;20056;-38
2021/12/08 11:29:00;;;;;;;15.00;3.60;;;6.40;99.90;;;;;;5069999;28;20054;-39
2021/12/08 11:31:33;;;;;;;11.23;3.00;;;6.30;99.90;;;;;;5052858;28;20060;-38
2021/12/08 11:34:03;;;;;;;11.73;3.13;;;6.30;99.90;;;;;;5051192;28;20065;-39
2021/12/08 11:36:31;;;;;;;11.32;2.40;;;6.30;99.90;;;;;;5070234;28;20141;-39
2021/12/08 11:39:00;;;;;;;11.63;3.28;;;6.30;99.90;;;;;;5051213;28;20087;-39
2021/12/08 11:41:35;;;;;;;8.48;2.80;;;6.20;99.90;;;;;;5069778;28;20048;-40
2021/12/08 11:44:04;;;;;;;11.55;2.80;;;6.20;99.90;;;;;;5069646;28;20097;-38
2021/12/08 11:46:35;;;;;;;9.82;3.15;;;6.20;99.90;;;;;;5037339;28;20052;-38
2021/12/08 11:49:05;;;;;;;15.02;2.90;;;6.20;99.90;;;;;;5070965;28;20048;-40
2021/12/08 11:51:35;;;;;;;10.50;2.90;;;6.20;99.90;;;;;;5056301;28;20087;-39
2021/12/08 11:54:04;;;;;;;14.35;3.20;;;6.20;99.90;;;;;;5055777;28;20076;-40
2021/12/08 11:56:32;;;;;;;12.73;2.58;;;6.10;99.90;;;;;;5050502;28;20060;-42
2021/12/08 11:59:00;;;;;;;13.18;2.92;;;6.10;99.90;;;;;;5074054;28;20052;-39
2021/12/08 12:01:27;;;;;;;11.55;3.55;;;6.10;99.90;;;;;;5055190;28;20132;-43
2021/12/08 12:03:54;;;;;;;12.35;3.83;;;6.10;99.90;;;;;;5053225;28;20127;-39
2021/12/08 12:06:27;;;;;;;13.93;3.63;;;6.10;99.90;;;;;;5055372;28;20084;-38
2021/12/08 12:08:58;;;;;;;9.65;2.80;;;6.10;99.90;;;;;;5056365;28;20084;-42
2021/12/08 12:11:27;;;;;;;11.32;3.05;;;6.10;99.90;;;;;;5072978;28;20052;-41
2021/12/08 12:13:54;;;;;;;10.68;3.35;;;6.10;99.90;;;;;;5072902;28;20044;-39
2021/12/08 12:16:22;;;;;;;45.10;22.05;;;6.10;99.90;;;;;;5054979;28;20131;-38
2021/12/08 12:18:50;;;;;;;36.10;19.35;;;6.10;99.90;;;;;;5056280;28;20121;-38
2021/12/08 12:21:23;;;;;;;14.07;6.30;;;6.10;99.90;;;;;;5055108;28;20048;-38
2021/12/08 12:23:57;;;;;;;40.97;23.67;;;6.10;99.90;;;;;;5073221;28;20048;-39
2021/12/08 12:26:31;;;;;;;18.20;9.07;;;6.10;99.90;;;;;;5071257;28;20060;-42
2021/12/08 12:29:15;;;;;;;20.13;9.90;;;6.10;99.90;;;;;;5056208;28;20395;-38
2021/12/08 12:31:46;;;;;;;12.77;3.50;;;6.10;99.90;;;;;;5065131;28;20055;-37
2021/12/08 12:34:28;;;;;;;13.67;3.00;;;6.10;99.90;;;;;;5074185;28;20128;-39
2021/12/08 12:36:55;;;;;;;11.75;3.33;;;6.10;99.90;;;;;;5074213;28;20052;-37
2021/12/08 12:39:23;;;;;;;13.77;3.38;;;6.10;99.90;;;;;;5055045;28;20407;-37
2021/12/08 12:42:05;;;;;;;9.25;3.13;;;6.10;99.90;;;;;;5056412;28;20048;-40
2021/12/08 12:44:32;;;;;;;13.30;3.22;;;6.10;99.90;;;;;;5054966;28;20515;-37
2021/12/08 12:47:14;;;;;;;9.52;2.95;;;6.10;99.90;;;;;;5056607;28;20124;-39
2021/12/08 12:49:42;;;;;;;12.15;3.13;;;6.10;99.90;;;;;;5056308;28;20134;-37
2021/12/08 12:52:10;;;;;;;9.50;3.25;;;6.00;99.90;;;;;;5032195;28;20064;-38
2021/12/08 12:54:37;;;;;;;12.70;2.65;;;6.10;99.90;;;;;;5034588;28;20087;-38
2021/12/08 12:57:07;;;;;;;11.43;2.83;;;6.10;99.90;;;;;;5032596;28;20088;-38
2021/12/08 12:59:39;;;;;;;11.88;2.75;;;6.10;99.90;;;;;;5032221;28;20085;-37
2021/12/08 13:02:07;;;;;;;10.77;2.78;;;6.10;99.90;;;;;;5033703;28;20042;-40
2021/12/08 13:04:35;;;;;;;12.10;2.50;;;6.10;99.90;;;;;;5032928;28;20088;-39
2021/12/08 13:07:03;;;;;;;10.57;2.70;;;6.20;99.90;;;;;;5032632;28;20053;-40
2021/12/08 13:09:41;;;;;;;12.60;3.13;;;6.20;99.90;;;;;;5032382;28;20732;-37
2021/12/08 13:12:10;;;;;;;10.80;3.20;;;6.20;99.90;;;;;;5033482;28;20152;-37
2021/12/08 13:14:38;;;;;;;9.48;3.65;;;6.20;99.90;;;;;;5026750;28;20145;-39
2021/12/08 13:17:19;;;;;;;12.63;2.60;;;6.20;99.90;;;;;;5017551;28;20494;-40
2021/12/08 13:19:47;;;;;;;9.47;2.23;;;6.20;99.80;;;;;;5030105;28;20185;-39
2021/12/08 13:22:59;;;;;;;9.80;2.65;;;6.10;99.70;;;;;;5027722;28;20049;-38
2021/12/08 13:25:45;;;;;;;10.93;2.88;;;6.10;99.70;;;;;;5014149;28;20410;-39
2021/12/08 13:28:17;;;;;;;10.65;2.92;;;6.10;99.80;;;;;;5024735;28;20046;-38
2021/12/08 13:30:46;;;;;;;9.98;2.80;;;6.10;99.80;;;;;;5033338;28;20049;-37
2021/12/08 13:33:41;;;;;;;12.70;2.80;;;6.20;99.90;;;;;;5033232;28;20077;-37